createdAt,value
2023-04-02T00:02:34.224Z,100.00
2023-04-02T00:05:31.148Z,100.00
2023-04-02T00:08:01.255Z,100.00
2023-04-02T00:10:32.757Z,100.00
2023-04-02T00:13:02.751Z,100.00
2023-04-02T00:15:32.067Z,100.00
2023-04-02T00:18:02.870Z,100.00
2023-04-02T00:20:34.192Z,100.00
2023-04-02T00:23:03.432Z,100.00
2023-04-02T00:25:42.966Z,100.00
2023-04-02T00:28:14.057Z,100.00
2023-04-02T00:30:48.568Z,100.00
2023-04-02T00:33:20.656Z,100.00
2023-04-02T00:35:51.116Z,100.00
2023-04-02T00:38:25.726Z,100.00
2023-04-02T00:40:57.169Z,100.00
2023-04-02T00:43:27.928Z,100.00
2023-04-02T00:45:59.107Z,100.00
2023-04-02T00:48:42.053Z,100.00
2023-04-02T00:51:16.960Z,100.00
2023-04-02T00:53:47.696Z,100.00
2023-04-02T00:56:20.730Z,100.00
2023-04-02T00:58:53.506Z,100.00
2023-04-02T01:01:25.302Z,100.00
2023-04-02T01:03:58.231Z,100.00
2023-04-02T01:06:31.051Z,100.00
2023-04-02T01:09:22.425Z,100.00
2023-04-02T01:12:11.970Z,100.00
2023-04-02T01:14:51.888Z,100.00
2023-04-02T01:17:42.937Z,100.00
2023-04-02T01:20:48.902Z,100.00
2023-04-02T01:23:23.155Z,100.00
2023-04-02T01:25:56.386Z,100.00
2023-04-02T01:28:29.551Z,100.00
2023-04-02T01:31:02.595Z,100.00
2023-04-02T01:33:34.852Z,100.00
2023-04-02T01:36:11.626Z,100.00
2023-04-02T01:38:45.061Z,100.00
2023-04-02T01:41:22.044Z,100.00
2023-04-02T01:43:54.355Z,100.00
2023-04-02T01:46:28.110Z,100.00
2023-04-02T01:48:57.393Z,100.00
2023-04-02T01:51:31.028Z,100.00
2023-04-02T01:54:03.536Z,100.00
2023-04-02T01:56:32.391Z,100.00
2023-04-02T01:59:02.695Z,100.00
2023-04-02T02:01:40.599Z,100.00
2023-04-02T02:04:13.721Z,100.00
2023-04-02T02:06:42.492Z,100.00
2023-04-02T02:09:15.968Z,100.00
2023-04-02T02:11:44.180Z,100.00
2023-04-02T02:14:17.660Z,100.00
2023-04-02T02:16:48.781Z,100.00
2023-04-02T02:19:24.587Z,100.00
2023-04-02T02:21:54.938Z,100.00
2023-04-02T02:24:26.171Z,100.00
2023-04-02T02:27:06.402Z,100.00
2023-04-02T02:29:39.760Z,100.00
2023-04-02T02:32:11.881Z,100.00
2023-04-02T02:34:46.959Z,100.00
2023-04-02T02:37:20.143Z,100.00
2023-04-02T02:39:54.994Z,99.55
2023-04-02T02:42:29.807Z,99.22
2023-04-02T02:44:59.275Z,99.17
2023-04-02T02:47:30.451Z,99.15
2023-04-02T02:50:04.472Z,98.72
2023-04-02T02:52:36.210Z,98.69
2023-04-02T02:55:13.063Z,98.36
2023-04-02T02:58:08.844Z,98.49
2023-04-02T03:00:45.431Z,98.91
2023-04-02T03:03:18.707Z,98.60
2023-04-02T03:05:54.296Z,97.87
2023-04-02T03:08:28.733Z,98.31
2023-04-02T03:11:03.423Z,98.13
2023-04-02T03:13:35.506Z,98.55
2023-04-02T03:16:12.300Z,98.90
2023-04-02T03:18:49.070Z,98.92
2023-04-02T03:21:25.792Z,98.67
2023-04-02T03:23:58.458Z,99.02
2023-04-02T03:26:34.380Z,98.89
2023-04-02T03:29:08.129Z,99.15
2023-04-02T03:31:40.844Z,99.67
2023-04-02T03:34:18.593Z,99.73
2023-04-02T03:36:56.828Z,100.00
2023-04-02T03:39:31.508Z,100.00
2023-04-02T03:42:04.463Z,100.00
2023-04-02T03:44:38.760Z,100.00
2023-04-02T03:47:16.087Z,100.00
2023-04-02T03:49:54.322Z,100.00
2023-04-02T03:52:26.901Z,100.00
2023-04-02T03:54:59.825Z,100.00
2023-04-02T03:57:33.663Z,99.50
2023-04-02T04:00:14.310Z,98.81
2023-04-02T04:02:52.718Z,98.49
2023-04-02T04:05:27.582Z,98.58
2023-04-02T04:08:02.486Z,97.99
2023-04-02T04:10:31.827Z,97.61
2023-04-02T04:13:04.667Z,97.62
2023-04-02T04:15:38.192Z,97.59
2023-04-02T04:18:19.292Z,97.79
2023-04-02T04:20:56.310Z,97.48
2023-04-02T04:23:32.728Z,96.87
2023-04-02T04:26:10.475Z,96.69
2023-04-02T04:28:48.224Z,96.31
2023-04-02T04:31:24.620Z,96.12
2023-04-02T04:34:03.050Z,96.20
2023-04-02T04:36:41.535Z,96.23
2023-04-02T04:39:18.694Z,96.65
2023-04-02T04:41:52.636Z,96.79
2023-04-02T04:44:25.180Z,97.26
2023-04-02T04:47:03.257Z,97.33
2023-04-02T04:49:36.881Z,97.20
2023-04-02T04:52:11.115Z,97.41
2023-04-02T04:54:41.123Z,97.06
2023-04-02T04:57:25.177Z,97.00
2023-04-02T04:59:59.615Z,97.30
2023-04-02T05:02:35.089Z,96.90
2023-04-02T05:05:04.966Z,96.89
2023-04-02T05:07:49.418Z,96.87
2023-04-02T05:10:24.659Z,96.76
2023-04-02T05:12:57.518Z,96.66
2023-04-02T05:15:31.239Z,96.36
2023-04-02T05:18:18.539Z,95.76
2023-04-02T05:20:51.449Z,94.88
2023-04-02T05:23:27.289Z,94.21
2023-04-02T05:26:06.545Z,94.89
2023-04-02T05:28:41.894Z,94.57
2023-04-02T05:31:20.385Z,94.62
2023-04-02T05:33:50.729Z,95.45
2023-04-02T05:36:24.706Z,95.56
2023-04-02T05:39:00.194Z,95.46
2023-04-02T05:41:41.168Z,95.62
2023-04-02T05:44:19.244Z,94.99
2023-04-02T05:46:52.529Z,94.92
2023-04-02T05:49:31.329Z,94.25
2023-04-02T05:52:03.250Z,93.25
2023-04-02T05:54:39.226Z,93.27
2023-04-02T05:57:13.729Z,92.61
2023-04-02T05:59:46.042Z,92.18
2023-04-02T06:02:24.063Z,91.82
2023-04-02T06:04:57.953Z,91.07
2023-04-02T06:07:35.467Z,89.80
2023-04-02T06:10:10.894Z,90.08
2023-04-02T06:12:45.348Z,90.74
2023-04-02T06:15:15.569Z,90.80
2023-04-02T06:17:48.568Z,90.74
2023-04-02T06:20:19.011Z,91.21
2023-04-02T06:22:53.003Z,91.40
2023-04-02T06:25:28.903Z,91.22
2023-04-02T06:28:00.758Z,90.99
2023-04-02T06:30:32.905Z,91.08
2023-04-02T06:33:02.121Z,91.43
2023-04-02T06:35:31.401Z,91.63
2023-04-02T06:38:06.725Z,91.39
2023-04-02T06:40:48.698Z,91.35
2023-04-02T06:43:35.694Z,91.16
2023-04-02T06:46:19.921Z,91.10
2023-04-02T06:49:24.241Z,90.57
2023-04-02T06:51:59.581Z,90.72
2023-04-02T06:54:28.297Z,90.60
2023-04-02T06:57:02.761Z,90.92
2023-04-02T06:59:35.123Z,90.07
2023-04-02T07:02:17.388Z,89.57
2023-04-02T07:04:45.781Z,90.02
2023-04-02T07:07:14.283Z,89.31
2023-04-02T07:09:45.068Z,89.61
2023-04-02T07:12:15.715Z,89.56
2023-04-02T07:14:47.934Z,89.86
2023-04-02T07:17:17.896Z,88.51
2023-04-02T07:19:49.579Z,88.60
2023-04-02T07:22:20.548Z,87.94
2023-04-02T07:24:53.614Z,87.95
2023-04-02T07:27:23.123Z,87.54
2023-04-02T07:29:51.278Z,86.97
2023-04-02T07:32:19.920Z,85.95
2023-04-02T07:34:48.963Z,85.56
2023-04-02T07:37:17.153Z,85.65
2023-04-02T07:39:45.299Z,84.81
2023-04-02T07:42:13.424Z,84.23
2023-04-02T07:44:43.026Z,83.81
2023-04-02T07:47:11.513Z,83.98
2023-04-02T07:49:39.660Z,84.29
2023-04-02T07:52:07.906Z,83.99
2023-04-02T07:54:38.250Z,82.50
2023-04-02T07:57:06.496Z,82.34
2023-04-02T07:59:34.674Z,81.90
2023-04-02T08:02:04.416Z,82.06
2023-04-02T08:04:33.124Z,81.82
2023-04-02T08:07:01.594Z,81.31
2023-04-02T08:09:29.724Z,81.02
2023-04-02T08:11:57.874Z,80.09
2023-04-02T08:14:26.293Z,79.94
2023-04-02T08:16:56.332Z,78.96
2023-04-02T08:19:26.498Z,78.75
2023-04-02T08:21:55.090Z,78.78
2023-04-02T08:24:24.097Z,78.90
2023-04-02T08:26:53.509Z,78.99
2023-04-02T08:29:21.677Z,79.21
2023-04-02T08:31:50.011Z,78.66
2023-04-02T08:34:18.167Z,77.59
2023-04-02T08:36:47.625Z,77.01
2023-04-02T08:39:15.913Z,76.93
2023-04-02T08:41:51.319Z,76.91
2023-04-02T08:44:36.668Z,77.34
2023-04-02T08:47:06.491Z,77.11
2023-04-02T08:49:42.696Z,77.85
2023-04-02T08:52:21.990Z,77.52
2023-04-02T08:54:50.939Z,77.79
2023-04-02T08:57:28.241Z,77.77
2023-04-02T09:00:02.614Z,77.93
2023-04-02T09:02:36.169Z,78.04
2023-04-02T09:05:08.126Z,77.31
2023-04-02T09:07:37.893Z,77.82
2023-04-02T09:10:07.325Z,77.69
2023-04-02T09:12:36.512Z,77.23
2023-04-02T09:15:24.638Z,77.31
2023-04-02T09:18:01.027Z,77.06
2023-04-02T09:20:29.562Z,77.06
2023-04-02T09:22:59.133Z,76.99
2023-04-02T09:25:29.774Z,77.01
2023-04-02T09:28:01.433Z,76.37
2023-04-02T09:30:42.633Z,75.69
2023-04-02T09:33:11.599Z,75.86
2023-04-02T09:35:56.583Z,75.72
2023-04-02T09:38:30.861Z,75.59
2023-04-02T09:41:01.483Z,75.76
2023-04-02T09:43:31.697Z,75.08
2023-04-02T09:46:03.078Z,74.45
2023-04-02T09:48:35.358Z,74.80
2023-04-02T09:51:17.822Z,75.25
2023-04-02T09:53:49.316Z,75.29
2023-04-02T09:56:19.834Z,75.45
2023-04-02T09:59:03.826Z,74.95
2023-04-02T10:01:34.149Z,75.27
2023-04-02T10:04:05.417Z,75.28
2023-04-02T10:06:35.850Z,75.30
2023-04-02T10:09:28.598Z,74.69
2023-04-02T10:11:58.276Z,74.96
2023-04-02T10:14:29.617Z,75.68
2023-04-02T10:17:00.734Z,75.38
2023-04-02T10:19:33.536Z,75.79
2023-04-02T10:22:06.214Z,75.66
2023-04-02T10:24:36.054Z,75.88
2023-04-02T10:27:17.371Z,75.88
2023-04-02T10:30:02.241Z,75.26
2023-04-02T10:32:38.183Z,75.23
2023-04-02T10:35:15.747Z,75.22
2023-04-02T10:38:02.383Z,75.61
2023-04-02T10:40:36.953Z,75.60
2023-04-02T10:43:51.319Z,75.60
2023-04-02T10:46:25.369Z,75.52
2023-04-02T10:49:05.477Z,75.77
2023-04-02T10:51:41.524Z,75.39
2023-04-02T10:54:27.904Z,75.69
2023-04-02T10:57:02.461Z,75.65
2023-04-02T10:59:35.141Z,76.19
2023-04-02T11:02:12.170Z,76.02
2023-04-02T11:04:46.285Z,75.99
2023-04-02T11:07:19.477Z,75.55
2023-04-02T11:09:51.449Z,75.88
2023-04-02T11:12:26.149Z,75.55
2023-04-02T11:14:56.819Z,75.27
2023-04-02T11:17:25.827Z,75.44
2023-04-02T11:19:54.117Z,75.34
2023-04-02T11:22:24.090Z,73.79
2023-04-02T11:24:54.561Z,72.66
2023-04-02T11:27:27.932Z,73.02
2023-04-02T11:30:06.071Z,72.84
2023-04-02T11:32:40.567Z,72.42
2023-04-02T11:35:40.713Z,72.83
2023-04-02T11:38:46.335Z,72.66
2023-04-02T11:41:14.737Z,73.00
2023-04-02T11:44:01.496Z,72.01
2023-04-02T11:46:51.619Z,71.41
2023-04-02T11:49:40.809Z,71.88
2023-04-02T11:52:27.981Z,71.97
2023-04-02T11:55:02.309Z,70.23
2023-04-02T11:57:51.802Z,70.07
2023-04-02T12:00:53.797Z,69.89
2023-04-02T12:03:37.038Z,69.95
2023-04-02T12:06:10.752Z,70.24
2023-04-02T12:08:57.549Z,69.86
2023-04-02T12:11:35.897Z,70.73
2023-04-02T12:14:28.266Z,70.14
2023-04-02T12:16:59.574Z,69.44
2023-04-02T12:19:30.578Z,69.58
2023-04-02T12:22:00.541Z,69.67
2023-04-02T12:24:31.489Z,69.76
2023-04-02T12:27:15.590Z,69.25
2023-04-02T12:29:44.478Z,68.56
2023-04-02T12:32:22.992Z,69.02
2023-04-02T12:34:52.568Z,68.74
2023-04-02T12:37:23.105Z,68.96
2023-04-02T12:39:57.001Z,68.86
2023-04-02T12:42:30.215Z,68.81
2023-04-02T12:44:58.405Z,68.29
2023-04-02T12:47:28.839Z,68.35
2023-04-02T12:49:59.373Z,68.19
2023-04-02T12:52:29.757Z,68.12
2023-04-02T12:55:00.180Z,67.92
2023-04-02T12:57:39.799Z,66.25
2023-04-02T13:00:32.067Z,66.33
2023-04-02T13:03:16.668Z,64.40
2023-04-02T13:05:48.118Z,64.72
2023-04-02T13:08:19.548Z,65.08
2023-04-02T13:10:54.756Z,66.03
2023-04-02T13:13:30.140Z,65.65
2023-04-02T13:16:03.869Z,65.20
2023-04-02T13:18:35.311Z,64.39
2023-04-02T13:21:04.673Z,64.69
2023-04-02T13:23:36.277Z,64.99
2023-04-02T13:26:16.922Z,63.46
2023-04-02T13:28:45.325Z,63.01
2023-04-02T13:31:16.634Z,61.39
2023-04-02T13:33:46.222Z,61.71
2023-04-02T13:36:15.116Z,63.05
2023-04-02T13:38:43.311Z,62.17
2023-04-02T13:41:21.356Z,60.69
2023-04-02T13:43:50.096Z,60.44
2023-04-02T13:46:22.097Z,60.92
2023-04-02T13:48:53.291Z,61.75
2023-04-02T13:51:24.085Z,62.52
2023-04-02T13:53:56.139Z,61.47
2023-04-02T13:56:24.745Z,61.08
2023-04-02T13:58:53.373Z,61.33
2023-04-02T14:01:23.723Z,61.16
2023-04-02T14:03:54.916Z,61.60
2023-04-02T14:06:32.136Z,61.80
2023-04-02T14:09:05.121Z,61.14
2023-04-02T14:11:47.860Z,61.12
2023-04-02T14:14:29.797Z,60.61
2023-04-02T14:17:12.093Z,60.54
2023-04-02T14:19:53.099Z,61.29
2023-04-02T14:22:30.888Z,61.40
2023-04-02T14:25:08.484Z,62.06
2023-04-02T14:27:45.054Z,62.34
2023-04-02T14:30:22.436Z,62.48
2023-04-02T14:32:59.036Z,62.29
2023-04-02T14:35:33.736Z,62.35
2023-04-02T14:38:10.831Z,62.15
2023-04-02T14:40:46.283Z,62.35
2023-04-02T14:43:20.521Z,62.23
2023-04-02T14:46:01.196Z,61.59
2023-04-02T14:48:38.015Z,62.27
2023-04-02T14:51:15.516Z,62.37
2023-04-02T14:53:52.430Z,62.79
2023-04-02T14:56:22.780Z,61.28
2023-04-02T14:58:56.146Z,61.22
2023-04-02T15:01:28.470Z,60.45
2023-04-02T15:04:02.135Z,60.68
2023-04-02T15:06:37.829Z,60.71
2023-04-02T15:09:13.220Z,60.65
2023-04-02T15:11:46.091Z,60.21
2023-04-02T15:14:19.873Z,60.04
2023-04-02T15:16:48.203Z,60.71
2023-04-02T15:19:18.624Z,61.13
2023-04-02T15:22:14.596Z,60.58
2023-04-02T15:24:51.951Z,60.16
2023-04-02T15:27:32.899Z,60.00
2023-04-02T15:30:08.964Z,59.91
2023-04-02T15:32:39.256Z,59.57
2023-04-02T15:35:20.467Z,59.59
2023-04-02T15:37:59.299Z,59.13
2023-04-02T15:40:52.190Z,60.23
2023-04-02T15:43:37.937Z,60.37
2023-04-02T15:46:13.260Z,61.30
2023-04-02T15:49:06.589Z,61.72
2023-04-02T15:52:00.380Z,60.50
2023-04-02T15:54:46.913Z,59.12
2023-04-02T15:57:32.350Z,59.88
2023-04-02T16:00:20.852Z,60.77
2023-04-02T16:03:11.915Z,61.56
2023-04-02T16:05:45.089Z,61.73
2023-04-02T16:08:50.382Z,62.35
2023-04-02T16:11:20.872Z,60.72
2023-04-02T16:13:49.021Z,59.94
2023-04-02T16:16:23.699Z,59.55
2023-04-02T16:18:57.607Z,59.86
2023-04-02T16:21:32.444Z,60.60
2023-04-02T16:24:00.889Z,61.17
2023-04-02T16:26:37.713Z,62.42
2023-04-02T16:29:23.528Z,62.76
2023-04-02T16:31:57.821Z,63.29
2023-04-02T16:34:40.370Z,63.12
2023-04-02T16:37:19.496Z,63.13
2023-04-02T16:39:53.908Z,62.95
2023-04-02T16:42:35.044Z,63.01
2023-04-02T16:45:18.766Z,63.48
2023-04-02T16:47:57.892Z,63.81
2023-04-02T16:50:37.863Z,63.66
2023-04-02T16:53:19.382Z,64.11
2023-04-02T16:56:03.232Z,64.35
2023-04-02T16:58:46.839Z,64.05
2023-04-02T17:01:22.897Z,64.12
2023-04-02T17:04:02.211Z,64.15
2023-04-02T17:06:41.908Z,64.49
2023-04-02T17:09:17.293Z,64.43
2023-04-02T17:11:50.041Z,64.98
2023-04-02T17:14:28.442Z,65.13
2023-04-02T17:17:02.729Z,65.09
2023-04-02T17:19:33.074Z,65.66
2023-04-02T17:22:02.842Z,66.03
2023-04-02T17:24:34.860Z,66.48
2023-04-02T17:27:11.384Z,66.96
2023-04-02T17:29:44.536Z,67.15
2023-04-02T17:32:18.640Z,67.64
2023-04-02T17:34:46.806Z,68.01
2023-04-02T17:37:27.544Z,67.95
2023-04-02T17:40:06.723Z,68.01
2023-04-02T17:42:47.349Z,68.18
2023-04-02T17:45:22.889Z,68.86
2023-04-02T17:48:02.595Z,69.17
2023-04-02T17:50:49.287Z,69.43
2023-04-02T17:53:29.093Z,69.78
2023-04-02T17:56:22.002Z,70.04
2023-04-02T17:59:03.244Z,70.46
2023-04-02T18:01:38.160Z,70.99
2023-04-02T18:04:19.094Z,71.20
2023-04-02T18:07:09.525Z,71.20
2023-04-02T18:09:45.511Z,71.47
2023-04-02T18:12:32.143Z,71.96
2023-04-02T18:15:11.880Z,72.36
2023-04-02T18:17:49.165Z,72.25
2023-04-02T18:20:32.243Z,72.18
2023-04-02T18:23:08.985Z,72.92
2023-04-02T18:25:56.508Z,73.58
2023-04-02T18:28:47.060Z,73.26
2023-04-02T18:31:26.408Z,73.86
2023-04-02T18:34:13.169Z,73.97
2023-04-02T18:36:53.852Z,74.02
2023-04-02T18:39:31.800Z,74.17
2023-04-02T18:42:06.329Z,73.75
2023-04-02T18:44:53.052Z,73.83
2023-04-02T18:47:29.829Z,73.91
2023-04-02T18:50:13.205Z,73.85
2023-04-02T18:52:42.031Z,73.51
2023-04-02T18:55:18.145Z,74.06
2023-04-02T18:57:49.550Z,74.56
2023-04-02T19:00:26.477Z,75.03
2023-04-02T19:03:00.087Z,74.54
2023-04-02T19:05:37.641Z,74.51
2023-04-02T19:08:14.075Z,74.39
2023-04-02T19:10:44.800Z,74.40
2023-04-02T19:13:17.782Z,74.35
2023-04-02T19:16:02.288Z,74.62
2023-04-02T19:18:40.099Z,74.17
2023-04-02T19:21:19.083Z,73.94
2023-04-02T19:24:01.006Z,73.55
2023-04-02T19:26:36.744Z,74.28
2023-04-02T19:29:17.259Z,73.65
2023-04-02T19:31:54.535Z,73.73
2023-04-02T19:34:29.288Z,73.63
2023-04-02T19:37:04.604Z,73.40
2023-04-02T19:39:54.453Z,73.71
2023-04-02T19:42:40.697Z,73.54
2023-04-02T19:45:28.364Z,73.53
2023-04-02T19:47:58.560Z,72.84
2023-04-02T19:50:26.841Z,72.81
2023-04-02T19:52:56.442Z,72.92
2023-04-02T19:55:24.631Z,73.28
2023-04-02T19:57:54.679Z,73.06
2023-04-02T20:00:26.486Z,73.05
2023-04-02T20:02:54.693Z,72.60
2023-04-02T20:05:22.881Z,72.66
2023-04-02T20:07:51.581Z,72.81
2023-04-02T20:10:23.015Z,72.94
2023-04-02T20:12:51.469Z,73.22
2023-04-02T20:15:20.385Z,73.56
2023-04-02T20:17:48.549Z,74.11
2023-04-02T20:20:17.114Z,73.87
2023-04-02T20:22:45.410Z,74.11
2023-04-02T20:25:13.631Z,74.35
2023-04-02T20:27:43.171Z,74.51
2023-04-02T20:30:12.103Z,74.99
2023-04-02T20:32:40.603Z,74.91
2023-04-02T20:35:09.601Z,75.47
2023-04-02T20:37:39.507Z,74.97
2023-04-02T20:40:09.991Z,75.42
2023-04-02T20:42:38.170Z,75.70
2023-04-02T20:45:09.504Z,75.77
2023-04-02T20:47:37.677Z,76.37
2023-04-02T20:50:06.975Z,76.33
2023-04-02T20:52:35.115Z,76.32
2023-04-02T20:55:03.573Z,76.74
2023-04-02T20:57:32.810Z,77.06
2023-04-02T21:00:03.670Z,77.24
2023-04-02T21:02:33.154Z,77.37
2023-04-02T21:05:01.308Z,77.51
2023-04-02T21:07:29.470Z,77.84
2023-04-02T21:09:57.724Z,77.77
2023-04-02T21:12:26.844Z,78.08
2023-04-02T21:14:59.209Z,78.48
2023-04-02T21:17:29.688Z,78.45
2023-04-02T21:20:05.891Z,78.98
2023-04-02T21:22:34.482Z,79.26
2023-04-02T21:25:02.671Z,79.58
2023-04-02T21:27:30.817Z,79.72
2023-04-02T21:29:59.042Z,79.78
2023-04-02T21:32:27.240Z,79.97
2023-04-02T21:34:55.809Z,80.15
2023-04-02T21:37:25.375Z,80.46
2023-04-02T21:39:53.517Z,80.73
2023-04-02T21:42:22.384Z,81.27
2023-04-02T21:44:51.014Z,81.01
2023-04-02T21:47:19.291Z,81.25
2023-04-02T21:49:47.478Z,81.76
2023-04-02T21:52:16.130Z,81.88
2023-04-02T21:54:46.404Z,82.19
2023-04-02T21:57:14.838Z,82.15
2023-04-02T21:59:43.645Z,82.80
2023-04-02T22:02:12.145Z,83.20
2023-04-02T22:04:40.918Z,83.00
2023-04-02T22:07:09.133Z,83.11
2023-04-02T22:09:37.261Z,83.30
2023-04-02T22:12:08.164Z,83.75
2023-04-02T22:14:36.419Z,83.89
2023-04-02T22:17:04.681Z,84.08
2023-04-02T22:19:33.350Z,84.25
2023-04-02T22:22:01.489Z,84.44
2023-04-02T22:24:29.983Z,84.63
2023-04-02T22:26:58.176Z,84.82
2023-04-02T22:29:27.940Z,85.23
2023-04-02T22:31:56.066Z,85.48
2023-04-02T22:34:24.224Z,85.27
2023-04-02T22:36:53.005Z,85.82
2023-04-02T22:39:21.256Z,85.86
2023-04-02T22:41:49.432Z,85.80
2023-04-02T22:44:17.823Z,86.03
2023-04-02T22:46:47.298Z,86.05
2023-04-02T22:49:19.214Z,86.31
2023-04-02T22:51:47.935Z,86.57
2023-04-02T22:54:16.130Z,86.66
2023-04-02T22:56:44.272Z,86.79
2023-04-02T22:59:12.434Z,86.97
2023-04-02T23:01:41.086Z,87.33
2023-04-02T23:04:10.616Z,87.15
2023-04-02T23:06:38.735Z,87.42
2023-04-02T23:09:06.906Z,87.74
2023-04-02T23:11:35.081Z,87.67
2023-04-02T23:14:03.294Z,87.99
2023-04-02T23:16:31.594Z,88.22
2023-04-02T23:18:59.844Z,88.08
2023-04-02T23:21:29.290Z,88.35
2023-04-02T23:23:57.426Z,88.59
2023-04-02T23:26:29.695Z,88.41
2023-04-02T23:28:58.195Z,88.24
2023-04-02T23:31:26.873Z,88.64
2023-04-02T23:33:55.170Z,88.77
2023-04-02T23:36:25.157Z,88.85
2023-04-02T23:38:56.170Z,89.06
2023-04-02T23:41:27.013Z,89.12
2023-04-02T23:43:55.924Z,89.34
2023-04-02T23:46:25.110Z,89.46
2023-04-02T23:48:53.378Z,89.62
2023-04-02T23:51:21.742Z,89.67
2023-04-02T23:53:50.847Z,89.68
2023-04-02T23:56:21.741Z,89.94
2023-04-02T23:58:51.753Z,90.00
